sensor_id;sensor_type;location;lat;lon;timestamp;temperature;humidity
51922;DHT22;37948;53.260;6.394;2023-03-20T00:00:33;7.50;99.90
51922;DHT22;37948;53.260;6.394;2023-03-20T00:03:00;7.60;99.90
51922;DHT22;37948;53.260;6.394;2023-03-20T00:05:28;7.60;99.90
51922;DHT22;37948;53.260;6.394;2023-03-20T00:07:54;7.50;99.90
51922;DHT22;37948;53.260;6.394;2023-03-20T00:10:23;7.60;99.90
51922;DHT22;37948;53.260;6.394;2023-03-20T00:12:49;7.50;99.90
51922;DHT22;37948;53.260;6.394;2023-03-20T00:15:45;7.50;99.90
51922;DHT22;37948;53.260;6.394;2023-03-20T00:18:19;7.50;99.90
51922;DHT22;37948;53.260;6.394;2023-03-20T00:20:48;7.50;99.90
51922;DHT22;37948;53.260;6.394;2023-03-20T00:23:15;7.40;99.90
51922;DHT22;37948;53.260;6.394;2023-03-20T00:25:41;7.40;99.90
51922;DHT22;37948;53.260;6.394;2023-03-20T00:31:04;7.40;99.90
51922;DHT22;37948;53.260;6.394;2023-03-20T00:33:31;7.40;99.90
51922;DHT22;37948;53.260;6.394;2023-03-20T00:35:57;7.40;99.90
51922;DHT22;37948;53.260;6.394;2023-03-20T00:38:23;7.40;99.90
51922;DHT22;37948;53.260;6.394;2023-03-20T00:40:50;7.40;99.90
51922;DHT22;37948;53.260;6.394;2023-03-20T00:43:15;7.40;99.90
51922;DHT22;37948;53.260;6.394;2023-03-20T00:45:43;7.40;99.90
51922;DHT22;37948;53.260;6.394;2023-03-20T00:48:12;7.30;99.90
51922;DHT22;37948;53.260;6.394;2023-03-20T00:50:38;7.30;99.90
51922;DHT22;37948;53.260;6.394;2023-03-20T00:53:05;7.30;99.90
51922;DHT22;37948;53.260;6.394;2023-03-20T00:55:31;7.30;99.90
51922;DHT22;37948;53.260;6.394;2023-03-20T00:57:59;7.40;99.90
51922;DHT22;37948;53.260;6.394;2023-03-20T01:00:42;7.30;99.90
51922;DHT22;37948;53.260;6.394;2023-03-20T01:03:20;7.40;99.90
51922;DHT22;37948;53.260;6.394;2023-03-20T01:05:48;7.40;99.90
51922;DHT22;37948;53.260;6.394;2023-03-20T01:10:42;7.40;99.90
51922;DHT22;37948;53.260;6.394;2023-03-20T01:13:19;7.30;99.90
51922;DHT22;37948;53.260;6.394;2023-03-20T01:15:46;7.40;99.90
51922;DHT22;37948;53.260;6.394;2023-03-20T01:18:14;7.40;99.90
51922;DHT22;37948;53.260;6.394;2023-03-20T01:20:39;7.40;99.90
51922;DHT22;37948;53.260;6.394;2023-03-20T01:23:05;7.30;99.90
51922;DHT22;37948;53.260;6.394;2023-03-20T01:25:31;7.30;99.90
51922;DHT22;37948;53.260;6.394;2023-03-20T01:27:57;7.30;99.90
51922;DHT22;37948;53.260;6.394;2023-03-20T01:30:30;7.30;99.90
51922;DHT22;37948;53.260;6.394;2023-03-20T01:32:57;7.40;99.90
51922;DHT22;37948;53.260;6.394;2023-03-20T01:35:25;7.40;99.90
51922;DHT22;37948;53.260;6.394;2023-03-20T01:37:52;7.40;99.90
51922;DHT22;37948;53.260;6.394;2023-03-20T01:40:36;7.40;99.90
51922;DHT22;37948;53.260;6.394;2023-03-20T01:43:14;7.40;99.90
51922;DHT22;37948;53.260;6.394;2023-03-20T01:45:48;7.40;99.90
51922;DHT22;37948;53.260;6.394;2023-03-20T01:48:17;7.40;99.90
51922;DHT22;37948;53.260;6.394;2023-03-20T01:50:43;7.40;99.90
51922;DHT22;37948;53.260;6.394;2023-03-20T01:55:35;7.40;99.90
51922;DHT22;37948;53.260;6.394;2023-03-20T01:58:06;7.40;99.90
51922;DHT22;37948;53.260;6.394;2023-03-20T02:00:34;7.40;99.90
51922;DHT22;37948;53.260;6.394;2023-03-20T02:03:01;7.40;99.90
51922;DHT22;37948;53.260;6.394;2023-03-20T02:05:29;7.40;99.90
51922;DHT22;37948;53.260;6.394;2023-03-20T02:10:43;7.40;99.90
51922;DHT22;37948;53.260;6.394;2023-03-20T02:13:09;7.40;99.90
51922;DHT22;37948;53.260;6.394;2023-03-20T02:15:50;7.50;99.90
51922;DHT22;37948;53.260;6.394;2023-03-20T02:18:17;7.40;99.90
51922;DHT22;37948;53.260;6.394;2023-03-20T02:23:46;7.50;99.90
51922;DHT22;37948;53.260;6.394;2023-03-20T02:26:20;7.50;99.90
51922;DHT22;37948;53.260;6.394;2023-03-20T02:29:14;7.50;99.90
51922;DHT22;37948;53.260;6.394;2023-03-20T02:59:12;7.50;99.90
51922;DHT22;37948;53.260;6.394;2023-03-20T03:01:43;7.50;99.90
51922;DHT22;37948;53.260;6.394;2023-03-20T03:04:17;7.50;99.90
51922;DHT22;37948;53.260;6.394;2023-03-20T03:06:47;7.60;99.90
51922;DHT22;37948;53.260;6.394;2023-03-20T03:09:18;7.50;99.90
51922;DHT22;37948;53.260;6.394;2023-03-20T03:11:57;7.50;99.90
51922;DHT22;37948;53.260;6.394;2023-03-20T03:14:42;7.50;99.90
51922;DHT22;37948;53.260;6.394;2023-03-20T03:17:12;7.50;99.90
51922;DHT22;37948;53.260;6.394;2023-03-20T03:19:42;7.50;99.90
51922;DHT22;37948;53.260;6.394;2023-03-20T03:22:09;7.50;99.90
51922;DHT22;37948;53.260;6.394;2023-03-20T03:24:38;7.60;99.90
51922;DHT22;37948;53.260;6.394;2023-03-20T03:27:37;7.50;99.90
51922;DHT22;37948;53.260;6.394;2023-03-20T03:32:48;7.60;99.90
51922;DHT22;37948;53.260;6.394;2023-03-20T03:35:17;7.60;99.90
51922;DHT22;37948;53.260;6.394;2023-03-20T03:37:56;7.60;99.90
51922;DHT22;37948;53.260;6.394;2023-03-20T03:40:34;7.60;99.90
51922;DHT22;37948;53.260;6.394;2023-03-20T03:43:08;7.60;99.90
51922;DHT22;37948;53.260;6.394;2023-03-20T03:45:51;7.60;99.90
51922;DHT22;37948;53.260;6.394;2023-03-20T03:48:23;7.60;99.90
51922;DHT22;37948;53.260;6.394;2023-03-20T03:50:56;7.60;99.90
51922;DHT22;37948;53.260;6.394;2023-03-20T03:53:30;7.60;99.90
51922;DHT22;37948;53.260;6.394;2023-03-20T03:56:16;7.60;99.90
51922;DHT22;37948;53.260;6.394;2023-03-20T03:58:47;7.60;99.90
51922;DHT22;37948;53.260;6.394;2023-03-20T04:01:15;7.60;99.90
51922;DHT22;37948;53.260;6.394;2023-03-20T04:03:46;7.60;99.90
51922;DHT22;37948;53.260;6.394;2023-03-20T04:06:14;7.60;99.90
51922;DHT22;37948;53.260;6.394;2023-03-20T04:08:41;7.60;99.90
51922;DHT22;37948;53.260;6.394;2023-03-20T04:11:18;7.60;99.90
51922;DHT22;37948;53.260;6.394;2023-03-20T04:13:49;7.60;99.90
51922;DHT22;37948;53.260;6.394;2023-03-20T04:16:16;7.60;99.90
51922;DHT22;37948;53.260;6.394;2023-03-20T04:18:43;7.60;99.90
51922;DHT22;37948;53.260;6.394;2023-03-20T04:21:10;7.60;99.90
51922;DHT22;37948;53.260;6.394;2023-03-20T04:23:36;7.60;99.90
51922;DHT22;37948;53.260;6.394;2023-03-20T04:26:02;7.60;99.90
51922;DHT22;37948;53.260;6.394;2023-03-20T04:28:28;7.60;99.90
51922;DHT22;37948;53.260;6.394;2023-03-20T04:30:55;7.60;99.90
51922;DHT22;37948;53.260;6.394;2023-03-20T04:33:22;7.60;99.90
51922;DHT22;37948;53.260;6.394;2023-03-20T04:35:48;7.50;99.90
51922;DHT22;37948;53.260;6.394;2023-03-20T04:38:15;7.50;99.90
51922;DHT22;37948;53.260;6.394;2023-03-20T04:40:40;7.50;99.90
51922;DHT22;37948;53.260;6.394;2023-03-20T04:43:06;7.60;99.90
51922;DHT22;37948;53.260;6.394;2023-03-20T04:45:32;7.60;99.90
51922;DHT22;37948;53.260;6.394;2023-03-20T04:47:57;7.60;99.90
51922;DHT22;37948;53.260;6.394;2023-03-20T04:50:23;7.60;99.90
51922;DHT22;37948;53.260;6.394;2023-03-20T04:52:48;7.60;99.90
51922;DHT22;37948;53.260;6.394;2023-03-20T04:55:14;7.50;99.90
51922;DHT22;37948;53.260;6.394;2023-03-20T04:57:40;7.60;99.90
51922;DHT22;37948;53.260;6.394;2023-03-20T05:00:06;7.60;99.90
51922;DHT22;37948;53.260;6.394;2023-03-20T05:02:32;7.60;99.90
51922;DHT22;37948;53.260;6.394;2023-03-20T05:04:58;7.50;99.90
51922;DHT22;37948;53.260;6.394;2023-03-20T05:07:23;7.50;99.90
51922;DHT22;37948;53.260;6.394;2023-03-20T05:09:49;7.60;99.90
51922;DHT22;37948;53.260;6.394;2023-03-20T05:12:15;7.50;99.90
51922;DHT22;37948;53.260;6.394;2023-03-20T05:14:41;7.50;99.90
51922;DHT22;37948;53.260;6.394;2023-03-20T05:17:06;7.60;99.90
51922;DHT22;37948;53.260;6.394;2023-03-20T05:19:32;7.50;99.90
51922;DHT22;37948;53.260;6.394;2023-03-20T05:21:57;7.60;99.90
51922;DHT22;37948;53.260;6.394;2023-03-20T05:24:23;7.60;99.90
51922;DHT22;37948;53.260;6.394;2023-03-20T05:26:49;7.60;99.90
51922;DHT22;37948;53.260;6.394;2023-03-20T05:29:14;7.50;99.90
51922;DHT22;37948;53.260;6.394;2023-03-20T05:31:40;7.50;99.90
51922;DHT22;37948;53.260;6.394;2023-03-20T05:34:06;7.50;99.90
51922;DHT22;37948;53.260;6.394;2023-03-20T05:36:31;7.60;99.90
51922;DHT22;37948;53.260;6.394;2023-03-20T05:38:57;7.60;99.90
51922;DHT22;37948;53.260;6.394;2023-03-20T05:41:23;7.60;99.90
51922;DHT22;37948;53.260;6.394;2023-03-20T05:43:48;7.60;99.90
51922;DHT22;37948;53.260;6.394;2023-03-20T05:46:14;7.60;99.90
51922;DHT22;37948;53.260;6.394;2023-03-20T05:48:40;7.60;99.90
51922;DHT22;37948;53.260;6.394;2023-03-20T05:51:06;7.60;99.90
51922;DHT22;37948;53.260;6.394;2023-03-20T05:53:31;7.60;99.90
51922;DHT22;37948;53.260;6.394;2023-03-20T05:55:57;7.60;99.90
51922;DHT22;37948;53.260;6.394;2023-03-20T05:58:23;7.60;99.90
51922;DHT22;37948;53.260;6.394;2023-03-20T06:00:48;7.60;99.90
51922;DHT22;37948;53.260;6.394;2023-03-20T06:03:14;7.60;99.90
51922;DHT22;37948;53.260;6.394;2023-03-20T06:05:40;7.60;99.90
51922;DHT22;37948;53.260;6.394;2023-03-20T06:08:06;7.60;99.90
51922;DHT22;37948;53.260;6.394;2023-03-20T06:10:32;7.60;99.90
51922;DHT22;37948;53.260;6.394;2023-03-20T06:12:58;7.60;99.90
51922;DHT22;37948;53.260;6.394;2023-03-20T06:15:28;7.60;99.90
51922;DHT22;37948;53.260;6.394;2023-03-20T06:17:55;7.60;99.90
51922;DHT22;37948;53.260;6.394;2023-03-20T06:20:20;7.60;99.90
51922;DHT22;37948;53.260;6.394;2023-03-20T06:22:46;7.60;99.90
51922;DHT22;37948;53.260;6.394;2023-03-20T06:25:12;7.60;99.90
51922;DHT22;37948;53.260;6.394;2023-03-20T06:27:38;7.60;99.90
51922;DHT22;37948;53.260;6.394;2023-03-20T06:30:04;7.60;99.90
51922;DHT22;37948;53.260;6.394;2023-03-20T06:32:31;7.60;99.90
51922;DHT22;37948;53.260;6.394;2023-03-20T06:34:57;7.60;99.90
51922;DHT22;37948;53.260;6.394;2023-03-20T06:37:22;7.60;99.90
51922;DHT22;37948;53.260;6.394;2023-03-20T06:39:48;7.60;99.90
51922;DHT22;37948;53.260;6.394;2023-03-20T06:42:14;7.60;99.90
51922;DHT22;37948;53.260;6.394;2023-03-20T06:44:41;7.60;99.90
51922;DHT22;37948;53.260;6.394;2023-03-20T06:47:07;7.60;99.90
51922;DHT22;37948;53.260;6.394;2023-03-20T06:49:32;7.60;99.90
51922;DHT22;37948;53.260;6.394;2023-03-20T06:51:58;7.60;99.90
51922;DHT22;37948;53.260;6.394;2023-03-20T06:54:24;7.60;99.90
51922;DHT22;37948;53.260;6.394;2023-03-20T06:56:50;7.70;99.90
51922;DHT22;37948;53.260;6.394;2023-03-20T06:59:16;7.60;99.90
51922;DHT22;37948;53.260;6.394;2023-03-20T07:01:42;7.70;99.90
51922;DHT22;37948;53.260;6.394;2023-03-20T07:04:08;7.70;99.90
51922;DHT22;37948;53.260;6.394;2023-03-20T07:06:33;7.70;99.90
51922;DHT22;37948;53.260;6.394;2023-03-20T07:08:59;7.70;99.90
51922;DHT22;37948;53.260;6.394;2023-03-20T07:11:26;7.80;99.90
51922;DHT22;37948;53.260;6.394;2023-03-20T07:13:52;7.80;99.90
51922;DHT22;37948;53.260;6.394;2023-03-20T07:16:18;7.80;99.90
51922;DHT22;37948;53.260;6.394;2023-03-20T07:18:43;7.80;99.90
51922;DHT22;37948;53.260;6.394;2023-03-20T07:21:17;7.90;99.90
51922;DHT22;37948;53.260;6.394;2023-03-20T07:23:43;7.90;99.90
51922;DHT22;37948;53.260;6.394;2023-03-20T07:26:09;7.90;99.90
51922;DHT22;37948;53.260;6.394;2023-03-20T07:28:35;8.00;99.90
51922;DHT22;37948;53.260;6.394;2023-03-20T07:31:01;8.00;99.90
51922;DHT22;37948;53.260;6.394;2023-03-20T07:33:26;8.00;99.90
51922;DHT22;37948;53.260;6.394;2023-03-20T07:35:53;8.10;99.90
51922;DHT22;37948;53.260;6.394;2023-03-20T07:38:19;8.10;99.90
51922;DHT22;37948;53.260;6.394;2023-03-20T07:40:45;8.10;99.90
51922;DHT22;37948;53.260;6.394;2023-03-20T07:43:13;8.10;99.90
51922;DHT22;37948;53.260;6.394;2023-03-20T07:45:39;8.20;99.90
51922;DHT22;37948;53.260;6.394;2023-03-20T07:48:05;8.20;99.90
51922;DHT22;37948;53.260;6.394;2023-03-20T07:50:30;8.20;99.90
51922;DHT22;37948;53.260;6.394;2023-03-20T07:52:56;8.20;99.90
51922;DHT22;37948;53.260;6.394;2023-03-20T07:55:22;8.20;99.90
51922;DHT22;37948;53.260;6.394;2023-03-20T07:57:48;8.20;99.90
51922;DHT22;37948;53.260;6.394;2023-03-20T08:00:14;8.20;99.90
51922;DHT22;37948;53.260;6.394;2023-03-20T08:02:41;8.20;99.90
51922;DHT22;37948;53.260;6.394;2023-03-20T08:05:07;8.30;99.90
51922;DHT22;37948;53.260;6.394;2023-03-20T08:07:34;8.30;99.90
51922;DHT22;37948;53.260;6.394;2023-03-20T08:10:00;8.30;99.90
51922;DHT22;37948;53.260;6.394;2023-03-20T08:12:26;8.30;99.90
51922;DHT22;37948;53.260;6.394;2023-03-20T08:14:51;8.30;99.90
51922;DHT22;37948;53.260;6.394;2023-03-20T08:17:18;8.30;99.90
51922;DHT22;37948;53.260;6.394;2023-03-20T08:19:44;8.30;99.90
51922;DHT22;37948;53.260;6.394;2023-03-20T08:22:10;8.30;99.90
51922;DHT22;37948;53.260;6.394;2023-03-20T08:24:36;8.30;99.90
51922;DHT22;37948;53.260;6.394;2023-03-20T08:27:01;8.30;99.90
51922;DHT22;37948;53.260;6.394;2023-03-20T08:29:27;8.30;99.90
51922;DHT22;37948;53.260;6.394;2023-03-20T08:31:53;8.30;99.90
51922;DHT22;37948;53.260;6.394;2023-03-20T08:34:20;8.30;99.90
51922;DHT22;37948;53.260;6.394;2023-03-20T08:36:46;8.30;99.90
51922;DHT22;37948;53.260;6.394;2023-03-20T08:39:12;8.40;99.90
51922;DHT22;37948;53.260;6.394;2023-03-20T08:41:37;8.40;99.90
51922;DHT22;37948;53.260;6.394;2023-03-20T08:44:04;8.40;99.90
51922;DHT22;37948;53.260;6.394;2023-03-20T08:46:30;8.40;99.90
51922;DHT22;37948;53.260;6.394;2023-03-20T08:48:56;8.50;99.90
51922;DHT22;37948;53.260;6.394;2023-03-20T08:51:23;8.50;99.90
51922;DHT22;37948;53.260;6.394;2023-03-20T08:53:49;8.50;99.90
51922;DHT22;37948;53.260;6.394;2023-03-20T08:56:15;8.60;99.90
51922;DHT22;37948;53.260;6.394;2023-03-20T08:58:40;8.60;99.90
51922;DHT22;37948;53.260;6.394;2023-03-20T09:01:08;8.70;99.90
51922;DHT22;37948;53.260;6.394;2023-03-20T09:03:34;8.70;99.90
51922;DHT22;37948;53.260;6.394;2023-03-20T09:06:03;8.70;99.90
51922;DHT22;37948;53.260;6.394;2023-03-20T09:08:29;8.70;99.90
51922;DHT22;37948;53.260;6.394;2023-03-20T09:10:54;8.80;99.90
51922;DHT22;37948;53.260;6.394;2023-03-20T09:13:20;8.90;99.90
51922;DHT22;37948;53.260;6.394;2023-03-20T09:15:47;8.90;99.90
51922;DHT22;37948;53.260;6.394;2023-03-20T09:18:13;8.90;99.90
51922;DHT22;37948;53.260;6.394;2023-03-20T09:20:39;9.00;99.90
51922;DHT22;37948;53.260;6.394;2023-03-20T09:23:05;9.10;99.90
51922;DHT22;37948;53.260;6.394;2023-03-20T09:25:30;9.10;99.90
51922;DHT22;37948;53.260;6.394;2023-03-20T09:27:56;9.20;99.90
51922;DHT22;37948;53.260;6.394;2023-03-20T09:30:23;9.20;99.90
51922;DHT22;37948;53.260;6.394;2023-03-20T09:32:49;9.30;99.90
51922;DHT22;37948;53.260;6.394;2023-03-20T09:35:16;9.30;99.90
51922;DHT22;37948;53.260;6.394;2023-03-20T09:37:42;9.30;99.90
51922;DHT22;37948;53.260;6.394;2023-03-20T09:40:10;9.40;99.90
51922;DHT22;37948;53.260;6.394;2023-03-20T09:45:44;9.50;99.90
51922;DHT22;37948;53.260;6.394;2023-03-20T09:53:50;9.60;99.90
51922;DHT22;37948;53.260;6.394;2023-03-20T09:56:28;9.60;99.90
51922;DHT22;37948;53.260;6.394;2023-03-20T09:59:00;9.70;99.90
51922;DHT22;37948;53.260;6.394;2023-03-20T10:01:43;9.70;99.90
51922;DHT22;37948;53.260;6.394;2023-03-20T10:04:11;9.70;99.90
51922;DHT22;37948;53.260;6.394;2023-03-20T10:06:37;9.70;99.90
51922;DHT22;37948;53.260;6.394;2023-03-20T10:09:15;9.70;99.90
51922;DHT22;37948;53.260;6.394;2023-03-20T10:14:43;9.70;99.90
51922;DHT22;37948;53.260;6.394;2023-03-20T10:17:19;9.70;99.90
51922;DHT22;37948;53.260;6.394;2023-03-20T10:20:24;9.70;99.90
51922;DHT22;37948;53.260;6.394;2023-03-20T10:23:23;9.70;99.90
51922;DHT22;37948;53.260;6.394;2023-03-20T10:25:53;9.70;99.90
51922;DHT22;37948;53.260;6.394;2023-03-20T10:28:33;9.70;99.90
51922;DHT22;37948;53.260;6.394;2023-03-20T10:31:30;9.70;99.90
51922;DHT22;37948;53.260;6.394;2023-03-20T10:42:20;9.70;99.90
51922;DHT22;37948;53.260;6.394;2023-03-20T10:44:53;9.70;99.90
51922;DHT22;37948;53.260;6.394;2023-03-20T10:47:23;9.80;99.90
51922;DHT22;37948;53.260;6.394;2023-03-20T10:50:17;9.80;99.90
51922;DHT22;37948;53.260;6.394;2023-03-20T10:52:43;9.70;99.90
51922;DHT22;37948;53.260;6.394;2023-03-20T10:55:19;9.70;99.90
51922;DHT22;37948;53.260;6.394;2023-03-20T10:57:52;9.70;99.90
51922;DHT22;37948;53.260;6.394;2023-03-20T11:00:22;9.60;99.90
51922;DHT22;37948;53.260;6.394;2023-03-20T11:02:47;9.60;99.90
51922;DHT22;37948;53.260;6.394;2023-03-20T11:05:29;9.60;99.90
51922;DHT22;37948;53.260;6.394;2023-03-20T11:08:08;9.60;99.90
51922;DHT22;37948;53.260;6.394;2023-03-20T11:10:37;9.60;99.90
51922;DHT22;37948;53.260;6.394;2023-03-20T11:15:43;9.50;99.90
51922;DHT22;37948;53.260;6.394;2023-03-20T11:18:11;9.50;99.90
51922;DHT22;37948;53.260;6.394;2023-03-20T11:20:54;9.60;99.90
51922;DHT22;37948;53.260;6.394;2023-03-20T11:23:28;9.60;99.90
51922;DHT22;37948;53.260;6.394;2023-03-20T11:26:02;9.60;99.90
51922;DHT22;37948;53.260;6.394;2023-03-20T11:28:32;9.60;99.90
51922;DHT22;37948;53.260;6.394;2023-03-20T11:31:17;9.60;99.90
51922;DHT22;37948;53.260;6.394;2023-03-20T11:33:59;9.60;99.90
51922;DHT22;37948;53.260;6.394;2023-03-20T11:36:33;9.60;99.90
51922;DHT22;37948;53.260;6.394;2023-03-20T11:41:31;9.60;99.90
51922;DHT22;37948;53.260;6.394;2023-03-20T11:43:57;9.60;99.90
51922;DHT22;37948;53.260;6.394;2023-03-20T11:46:24;9.60;99.90
51922;DHT22;37948;53.260;6.394;2023-03-20T11:49:05;9.50;99.90
51922;DHT22;37948;53.260;6.394;2023-03-20T11:51:32;9.60;99.90
51922;DHT22;37948;53.260;6.394;2023-03-20T11:54:02;9.50;99.90
51922;DHT22;37948;53.260;6.394;2023-03-20T11:56:30;9.40;99.90
51922;DHT22;37948;53.260;6.394;2023-03-20T11:59:02;9.40;99.90
51922;DHT22;37948;53.260;6.394;2023-03-20T12:04:35;9.30;99.90
51922;DHT22;37948;53.260;6.394;2023-03-20T12:07:26;9.30;99.90
51922;DHT22;37948;53.260;6.394;2023-03-20T12:09:57;9.20;99.90
51922;DHT22;37948;53.260;6.394;2023-03-20T12:15:12;9.10;99.90
51922;DHT22;37948;53.260;6.394;2023-03-20T12:18:04;9.10;99.90
51922;DHT22;37948;53.260;6.394;2023-03-20T12:20:40;9.10;99.90
51922;DHT22;37948;53.260;6.394;2023-03-20T12:34:14;9.10;99.90
51922;DHT22;37948;53.260;6.394;2023-03-20T12:36:44;9.10;99.90
51922;DHT22;37948;53.260;6.394;2023-03-20T12:39:13;9.00;99.90
51922;DHT22;37948;53.260;6.394;2023-03-20T12:50:38;8.90;99.90
51922;DHT22;37948;53.260;6.394;2023-03-20T13:09:00;8.80;99.90
51922;DHT22;37948;53.260;6.394;2023-03-20T13:11:50;8.80;99.90
51922;DHT22;37948;53.260;6.394;2023-03-20T13:17:04;8.80;99.90
51922;DHT22;37948;53.260;6.394;2023-03-20T13:19:43;8.80;99.90
51922;DHT22;37948;53.260;6.394;2023-03-20T13:22:27;8.80;99.90
51922;DHT22;37948;53.260;6.394;2023-03-20T13:25:11;8.80;99.90
51922;DHT22;37948;53.260;6.394;2023-03-20T13:36:48;8.80;99.90
51922;DHT22;37948;53.260;6.394;2023-03-20T13:39:24;8.80;99.90
51922;DHT22;37948;53.260;6.394;2023-03-20T13:41:52;8.80;99.90
51922;DHT22;37948;53.260;6.394;2023-03-20T13:44:19;8.80;99.90
51922;DHT22;37948;53.260;6.394;2023-03-20T13:46:58;8.80;99.90
51922;DHT22;37948;53.260;6.394;2023-03-20T13:52:21;8.80;99.90
51922;DHT22;37948;53.260;6.394;2023-03-20T13:55:13;8.80;99.90
51922;DHT22;37948;53.260;6.394;2023-03-20T14:03:33;8.80;99.90
51922;DHT22;37948;53.260;6.394;2023-03-20T14:06:00;8.80;99.90
51922;DHT22;37948;53.260;6.394;2023-03-20T14:13:29;8.80;99.90
51922;DHT22;37948;53.260;6.394;2023-03-20T14:15:56;8.80;99.90
51922;DHT22;37948;53.260;6.394;2023-03-20T14:18:25;8.70;99.90
51922;DHT22;37948;53.260;6.394;2023-03-20T14:20:57;8.80;99.90
51922;DHT22;37948;53.260;6.394;2023-03-20T14:23:46;8.80;99.90
51922;DHT22;37948;53.260;6.394;2023-03-20T14:26:26;8.80;99.90
51922;DHT22;37948;53.260;6.394;2023-03-20T14:28:56;8.80;99.90
51922;DHT22;37948;53.260;6.394;2023-03-20T14:31:24;8.80;99.90
51922;DHT22;37948;53.260;6.394;2023-03-20T14:39:33;8.80;99.90
51922;DHT22;37948;53.260;6.394;2023-03-20T14:42:01;8.90;99.90
51922;DHT22;37948;53.260;6.394;2023-03-20T14:44:48;8.80;99.90
51922;DHT22;37948;53.260;6.394;2023-03-20T14:49:54;8.80;99.90
51922;DHT22;37948;53.260;6.394;2023-03-20T14:55:31;8.80;99.90
51922;DHT22;37948;53.260;6.394;2023-03-20T14:58:05;8.80;99.90
51922;DHT22;37948;53.260;6.394;2023-03-20T15:00:50;8.80;99.90
51922;DHT22;37948;53.260;6.394;2023-03-20T15:03:16;8.80;99.90
51922;DHT22;37948;53.260;6.394;2023-03-20T15:05:43;8.70;99.90
51922;DHT22;37948;53.260;6.394;2023-03-20T15:08:20;8.70;99.90
51922;DHT22;37948;53.260;6.394;2023-03-20T15:10:53;8.70;99.90
51922;DHT22;37948;53.260;6.394;2023-03-20T15:13:19;8.70;99.90
51922;DHT22;37948;53.260;6.394;2023-03-20T15:18:20;8.70;99.90
51922;DHT22;37948;53.260;6.394;2023-03-20T15:20:46;8.70;99.90
51922;DHT22;37948;53.260;6.394;2023-03-20T15:23:12;8.70;99.90
51922;DHT22;37948;53.260;6.394;2023-03-20T15:25:43;8.70;99.90
51922;DHT22;37948;53.260;6.394;2023-03-20T15:28:24;8.70;99.90
51922;DHT22;37948;53.260;6.394;2023-03-20T15:30:52;8.70;99.90
51922;DHT22;37948;53.260;6.394;2023-03-20T15:33:39;8.70;99.90
51922;DHT22;37948;53.260;6.394;2023-03-20T15:36:15;8.70;99.90
51922;DHT22;37948;53.260;6.394;2023-03-20T15:38:43;8.70;99.90
51922;DHT22;37948;53.260;6.394;2023-03-20T15:41:32;8.70;99.90
51922;DHT22;37948;53.260;6.394;2023-03-20T15:44:15;8.70;99.90
51922;DHT22;37948;53.260;6.394;2023-03-20T15:47:00;8.70;99.90
51922;DHT22;37948;53.260;6.394;2023-03-20T15:49:30;8.70;99.90
51922;DHT22;37948;53.260;6.394;2023-03-20T15:51:58;8.70;99.90
51922;DHT22;37948;53.260;6.394;2023-03-20T15:54:25;8.70;99.90
51922;DHT22;37948;53.260;6.394;2023-03-20T15:56:53;8.70;99.90
51922;DHT22;37948;53.260;6.394;2023-03-20T15:59:23;8.70;99.90
51922;DHT22;37948;53.260;6.394;2023-03-20T16:01:53;8.70;99.90
51922;DHT22;37948;53.260;6.394;2023-03-20T16:04:20;8.70;99.90
51922;DHT22;37948;53.260;6.394;2023-03-20T16:06:51;8.70;99.90
51922;DHT22;37948;53.260;6.394;2023-03-20T16:09:17;8.70;99.90
51922;DHT22;37948;53.260;6.394;2023-03-20T16:11:45;8.80;99.90
51922;DHT22;37948;53.260;6.394;2023-03-20T16:14:19;8.70;99.90
51922;DHT22;37948;53.260;6.394;2023-03-20T16:16:48;8.70;99.90
51922;DHT22;37948;53.260;6.394;2023-03-20T16:19:14;8.70;99.90
51922;DHT22;37948;53.260;6.394;2023-03-20T16:21:44;8.70;99.90
51922;DHT22;37948;53.260;6.394;2023-03-20T16:24:18;8.80;99.90
51922;DHT22;37948;53.260;6.394;2023-03-20T16:26:48;8.70;99.90
51922;DHT22;37948;53.260;6.394;2023-03-20T16:29:14;8.70;99.90
51922;DHT22;37948;53.260;6.394;2023-03-20T16:32:01;8.70;99.90
51922;DHT22;37948;53.260;6.394;2023-03-20T16:34:34;8.70;99.90
51922;DHT22;37948;53.260;6.394;2023-03-20T16:37:06;8.70;99.90
51922;DHT22;37948;53.260;6.394;2023-03-20T16:39:32;8.70;99.90
51922;DHT22;37948;53.260;6.394;2023-03-20T16:42:10;8.70;99.90
51922;DHT22;37948;53.260;6.394;2023-03-20T16:44:36;8.70;99.90
51922;DHT22;37948;53.260;6.394;2023-03-20T16:47:19;8.70;99.90
51922;DHT22;37948;53.260;6.394;2023-03-20T16:50:08;8.70;99.90
51922;DHT22;37948;53.260;6.394;2023-03-20T16:52:40;8.70;99.90
51922;DHT22;37948;53.260;6.394;2023-03-20T16:55:14;8.70;99.90
51922;DHT22;37948;53.260;6.394;2023-03-20T16:57:41;8.70;99.90
51922;DHT22;37948;53.260;6.394;2023-03-20T17:01:04;8.70;99.90
51922;DHT22;37948;53.260;6.394;2023-03-20T17:03:15;8.70;99.90
51922;DHT22;37948;53.260;6.394;2023-03-20T17:05:52;8.70;99.90
51922;DHT22;37948;53.260;6.394;2023-03-20T17:08:32;8.70;99.90
51922;DHT22;37948;53.260;6.394;2023-03-20T17:11:03;8.70;99.90
51922;DHT22;37948;53.260;6.394;2023-03-20T17:13:29;8.70;99.90
51922;DHT22;37948;53.260;6.394;2023-03-20T17:15:54;8.70;99.90
51922;DHT22;37948;53.260;6.394;2023-03-20T17:18:20;8.70;99.90
51922;DHT22;37948;53.260;6.394;2023-03-20T17:20:46;8.70;99.90
51922;DHT22;37948;53.260;6.394;2023-03-20T17:23:13;8.70;99.90
51922;DHT22;37948;53.260;6.394;2023-03-20T17:25:40;8.70;99.90
51922;DHT22;37948;53.260;6.394;2023-03-20T17:28:08;8.70;99.90
51922;DHT22;37948;53.260;6.394;2023-03-20T17:30:35;8.70;99.90
51922;DHT22;37948;53.260;6.394;2023-03-20T17:33:00;8.70;99.90
51922;DHT22;37948;53.260;6.394;2023-03-20T17:35:26;8.70;99.90
51922;DHT22;37948;53.260;6.394;2023-03-20T17:37:52;8.70;99.90
51922;DHT22;37948;53.260;6.394;2023-03-20T17:40:21;8.70;99.90
51922;DHT22;37948;53.260;6.394;2023-03-20T17:42:49;8.70;99.90
51922;DHT22;37948;53.260;6.394;2023-03-20T17:45:16;8.70;99.90
51922;DHT22;37948;53.260;6.394;2023-03-20T17:47:43;8.70;99.90
51922;DHT22;37948;53.260;6.394;2023-03-20T17:50:16;8.60;99.90
51922;DHT22;37948;53.260;6.394;2023-03-20T17:52:42;8.70;99.90
51922;DHT22;37948;53.260;6.394;2023-03-20T17:55:08;8.60;99.90
51922;DHT22;37948;53.260;6.394;2023-03-20T17:57:38;8.70;99.90
51922;DHT22;37948;53.260;6.394;2023-03-20T18:00:06;8.60;99.90
51922;DHT22;37948;53.260;6.394;2023-03-20T18:02:33;8.70;99.90
51922;DHT22;37948;53.260;6.394;2023-03-20T18:04:58;8.70;99.90
51922;DHT22;37948;53.260;6.394;2023-03-20T18:07:24;8.60;99.90
51922;DHT22;37948;53.260;6.394;2023-03-20T18:09:50;8.60;99.90
51922;DHT22;37948;53.260;6.394;2023-03-20T18:12:16;8.60;99.90
51922;DHT22;37948;53.260;6.394;2023-03-20T18:14:43;8.70;99.90
51922;DHT22;37948;53.260;6.394;2023-03-20T18:17:11;8.60;99.90
51922;DHT22;37948;53.260;6.394;2023-03-20T18:19:37;8.60;99.90
51922;DHT22;37948;53.260;6.394;2023-03-20T18:22:03;8.60;99.90
51922;DHT22;37948;53.260;6.394;2023-03-20T18:24:28;8.70;99.90
51922;DHT22;37948;53.260;6.394;2023-03-20T18:26:54;8.70;99.90
51922;DHT22;37948;53.260;6.394;2023-03-20T18:29:20;8.70;99.90
51922;DHT22;37948;53.260;6.394;2023-03-20T18:31:47;8.60;99.90